Date,TemperatureHighF,TemperatureAvgF,TemperatureLowF,DewpointHighF,DewpointAvgF,DewpointLowF,HumidityHigh,HumidityAvg,HumidityLow,PressureMaxIn,PressureMinIn,WindSpeedMaxMPH,WindSpeedAvgMPH,GustSpeedMaxMPH,PrecipitationSumIn
2013-1-1,4.0,-2.8,-7.0,1.0,-6.1,-10.0,86,85,84,0.00,40.00,14,5,18,0.10
2013-1-2,6.0,-1.6,-7.0,2.0,-4.9,-10.0,87,85,84,0.00,40.00,11,4,15,0.00
2013-1-3,16.0,4.2,-8.0,6.0,-5.6,-11.0,85,66,32,0.00,40.00,12,4,19,0.00
2013-1-4,28.0,16.2,6.0,3.0,-2.9,-7.0,61,42,33,0.00,40.00,13,7,19,0.00
2013-1-5,22.0,12.5,4.0,0.0,-3.9,-7.0,65,48,36,0.00,40.00,20,8,24,0.00
2013-1-6,33.0,19.9,11.0,2.0,-4.0,-8.0,43,34,26,0.00,40.00,17,9,24,0.00
2013-1-7,33.0,21.0,13.0,-1.0,-7.2,-11.0,41,28,17,0.00,40.00,12,4,15,0.00
2013-1-8,23.0,16.5,10.0,4.0,-1.1,-8.0,58,45,39,0.00,40.00,14,7,17,0.00
2013-1-9,36.0,24.1,16.0,8.0,3.3,0.0,56,40,29,0.00,40.00,17,6,22,0.00
2013-1-10,28.0,21.8,14.0,10.0,0.6,-5.0,84,41,25,0.00,40.00,27,15,36,0.00
2013-1-11,14.0,2.4,-7.0,13.0,-0.3,-11.0,93,88,82,0.00,40.00,32,12,43,3.40
2013-1-12,-1.0,-8.7,-14.0,-4.0,-12.0,-17.0,86,85,84,0.00,40.00,7,3,17,0.00
2013-1-13,-1.0,-8.9,-13.0,-5.0,-12.2,-17.0,86,85,84,0.00,40.00,15,6,22,0.00
2013-1-14,3.0,-6.8,-13.0,0.0,-10.0,-17.0,87,85,84,0.00,40.00,12,5,17,0.00
2013-1-15,3.0,-7.3,-18.0,0.0,-10.6,-22.0,87,85,83,0.00,40.00,14,8,17,0.00
2013-1-16,22.0,11.7,0.0,20.0,9.3,-3.0,94,90,87,0.00,40.00,14,7,22,0.00
2013-1-17,34.0,19.9,12.0,19.0,11.9,8.0,88,72,49,0.00,40.00,11,5,14,0.00
2013-1-18,25.0,14.5,10.0,12.0,6.2,-1.0,92,71,46,0.00,40.00,14,5,18,0.00
2013-1-19,28.0,17.9,10.0,4.0,-0.7,-6.0,68,44,32,0.00,40.00,12,6,16,0.00
2013-1-20,31.0,17.8,11.0,3.0,-2.9,-6.0,48,39,26,0.00,40.00,14,6,21,0.00
2013-1-21,26.0,16.8,9.0,4.0,-1.2,-5.0,51,44,37,0.00,40.00,16,9,21,0.00
2013-1-22,32.0,22.2,14.0,-2.0,-6.4,-11.0,45,28,18,0.00,40.00,14,5,16,0.00
2013-1-23,40.0,28.2,20.0,-7.0,-12.2,-17.0,24,16,9,0.00,40.00,10,5,18,0.00
2013-1-24,26.0,23.6,21.0,0.0,-5.3,-8.0,32,27,24,0.00,40.00,13,6,27,0.00
2013-1-25,26.0,25.5,24.0,25.0,24.3,23.0,95,95,94,0.00,40.00,8,4,16,0.00
2013-1-26,29.0,25.5,22.0,28.0,24.3,21.0,96,95,93,0.00,40.00,21,8,30,0.50
2013-1-27,25.0,23.4,18.0,24.0,21.9,16.0,95,94,91,0.00,40.00,20,7,30,1.60
2013-1-28,21.0,16.4,8.0,19.0,14.2,5.0,92,90,86,0.00,40.00,21,10,27,8.50
2013-1-29,8.0,0.8,-7.0,5.0,-2.9,-11.0,86,83,81,0.00,40.00,11,4,19,1.40
2013-1-30,8.0,0.5,-9.0,4.0,-3.4,-13.0,85,83,80,0.00,40.00,21,8,32,1.40
2013-1-31,16.0,11.9,9.0,13.0,9.1,6.0,88,87,86,0.00,40.00,12,5,20,0.50
2013-2-1,20.0,13.4,10.0,18.0,10.7,7.0,91,88,87,0.00,40.00,12,5,20,0.00
2013-2-2,24.0,14.7,8.0,22.0,11.8,4.0,93,87,69,0.00,40.00,15,6,23,0.00
2013-2-3,27.0,18.6,13.0,13.0,0.9,-8.0,93,48,26,0.00,40.00,9,5,13,0.00
2013-2-4,25.0,15.0,9.0,13.0,5.9,1.0,91,69,39,0.00,40.00,12,6,17,0.00
2013-2-5,31.0,21.0,11.0,10.0,6.6,3.0,79,54,39,0.00,40.00,17,6,22,0.00
2013-2-6,29.0,20.3,16.0,17.0,9.0,2.0,92,63,44,0.00,40.00,9,4,19,0.00
2013-2-7,27.0,16.5,8.0,16.0,2.4,-14.0,91,60,20,0.00,40.00,21,7,29,0.00
2013-2-8,26.0,19.4,14.0,17.0,9.9,2.0,93,67,47,0.00,40.00,26,17,37,0.00
2013-2-9,18.0,12.2,6.0,14.0,7.3,3.0,88,80,63,0.00,40.00,22,8,37,7.20
2013-2-10,14.0,5.8,1.0,12.0,2.8,-3.0,88,86,85,0.00,40.00,12,5,19,0.70
2013-2-11,12.0,3.2,-2.0,9.0,-0.1,-6.0,87,85,83,0.00,40.00,7,3,15,0.40
2013-2-12,10.0,1.4,-5.0,7.0,-2.0,-9.0,87,85,83,0.00,40.00,13,6,19,0.00
2013-2-13,15.0,7.1,-1.0,12.0,4.2,-4.0,89,87,85,0.00,40.00,16,7,22,0.00
2013-2-14,15.0,9.7,4.0,12.0,7.0,0.0,89,88,87,0.00,40.00,8,4,16,5.30
2013-2-15,12.0,6.5,3.0,10.0,3.6,0.0,88,87,86,0.00,40.00,14,5,25,0.70
2013-2-16,23.0,11.2,3.0,15.0,5.2,0.0,87,77,53,0.00,40.00,9,5,16,0.00
2013-2-17,29.0,18.5,10.0,11.0,-3.1,-10.0,91,41,19,0.00,40.00,11,4,20,0.30
2013-2-18,13.0,6.9,0.0,11.0,0.5,-14.0,91,76,39,0.00,40.00,11,5,24,3.50
2013-2-19,26.0,15.2,5.0,-3.0,-7.9,-15.0,46,35,21,0.00,40.00,18,11,24,0.00
2013-2-20,22.0,15.1,10.0,16.0,8.1,-4.0,92,75,39,0.00,40.00,19,6,25,14.20
2013-2-21,16.0,10.9,8.0,14.0,8.9,5.0,91,90,89,0.00,40.00,10,4,15,12.20
2013-2-22,18.0,7.5,1.0,16.0,5.0,-2.0,92,88,87,0.00,40.00,8,3,16,1.90
2013-2-23,16.0,7.8,-1.0,14.0,5.3,-4.0,91,89,86,0.00,40.00,11,5,17,5.20
2013-2-24,15.0,5.2,-2.0,13.0,2.5,-5.0,90,88,86,0.00,40.00,22,9,40,5.90
2013-2-25,14.0,4.0,-7.0,12.0,1.2,-11.0,90,87,85,0.00,40.00,14,6,19,0.00
2013-2-26,10.0,5.2,-1.0,7.0,2.3,-5.0,88,87,86,0.00,40.00,11,4,18,3.20
2013-2-27,13.0,2.1,-6.0,11.0,-0.9,-9.0,88,86,85,0.00,40.00,11,5,17,0.00
2013-2-28,13.0,4.5,-4.0,6.0,0.1,-8.0,87,81,68,0.00,40.00,19,8,29,0.10
2013-3-1,22.0,13.4,7.0,19.0,10.9,4.0,93,89,85,0.00,40.00,16,8,29,1.10
2013-3-2,31.0,21.0,12.0,21.0,13.5,10.0,93,74,49,0.00,40.00,16,-1,21,0.00
2013-3-3,30.0,23.2,19.0,20.0,13.7,10.0,94,68,49,0.00,40.00,14,6,26,5.30
2013-3-4,22.0,17.0,3.0,20.0,15.3,0.0,94,92,86,0.00,40.00,17,5,31,10.90
2013-3-5,31.0,16.3,2.0,2.0,-4.6,-11.0,86,43,16,0.00,40.00,13,5,16,0.00
2013-3-6,38.0,26.2,17.0,11.0,4.4,-2.0,44,38,32,0.00,40.00,18,5,24,0.00
2013-3-7,41.0,29.9,24.0,7.0,3.4,-2.0,41,32,21,0.00,40.00,21,11,29,0.00
2013-3-8,34.0,26.1,20.0,22.0,11.8,5.0,94,57,39,0.00,40.00,24,13,37,0.70
2013-3-9,20.0,15.4,10.0,18.0,13.2,7.0,93,90,88,0.00,40.00,17,4,22,7.60
2013-3-10,20.0,10.2,0.0,18.0,7.3,-3.0,90,87,85,0.00,40.00,11,4,20,0.30
2013-3-11,27.0,16.4,10.0,15.0,9.9,7.0,90,76,47,0.00,40.00,14,7,23,0.00
2013-3-12,28.0,20.8,16.0,21.0,16.2,14.0,93,83,59,0.00,40.00,11,6,22,0.00
2013-3-13,37.0,25.3,17.0,17.0,15.0,12.0,91,66,41,0.00,40.00,13,5,22,0.00
2013-3-14,41.0,30.3,20.0,16.0,12.2,8.0,70,48,29,0.00,40.00,13,4,20,0.00
2013-3-15,42.0,33.4,25.0,15.0,12.2,10.0,53,41,30,0.00,40.00,13,7,25,0.00
2013-3-16,35.0,26.8,20.0,26.0,18.9,12.0,96,74,45,0.00,40.00,12,3,21,3.90
2013-3-17,24.0,19.4,16.0,22.0,16.0,4.0,94,86,58,0.00,40.00,21,7,34,2.90
2013-3-18,21.0,14.8,10.0,11.0,4.1,-1.0,87,63,47,0.00,40.00,11,5,25,2.50
2013-3-19,28.0,19.6,14.0,3.0,-4.0,-18.0,59,36,20,0.00,40.00,14,4,24,0.00
2013-3-20,30.0,20.9,13.0,21.0,1.6,-18.0,94,48,21,0.00,40.00,11,5,27,0.40
2013-3-21,24.0,19.9,12.0,23.0,17.8,5.0,94,91,73,0.00,40.00,14,6,24,5.20
2013-3-22,27.0,15.9,5.0,8.0,3.0,-1.0,77,57,37,0.00,40.00,10,5,25,0.00
2013-3-23,11.0,3.7,-3.0,4.0,-0.4,-7.0,87,82,61,0.00,40.00,11,3,17,3.20
2013-3-24,7.0,-0.1,-6.0,3.0,-4.5,-10.0,85,81,72,0.00,40.00,12,5,22,0.00
2013-3-25,18.0,5.7,-5.0,-1.0,-8.2,-15.0,74,53,36,0.00,40.00,14,6,24,0.00
2013-3-26,33.0,20.7,7.0,13.0,4.7,-8.0,83,50,37,0.00,40.00,12,6,25,0.00
2013-3-27,36.0,27.7,19.0,14.0,9.1,5.0,72,47,30,0.00,40.00,13,4,25,0.00
2013-3-28,41.0,29.7,21.0,17.0,9.4,4.0,53,42,33,0.00,40.00,12,3,21,0.00
2013-3-29,40.0,30.0,22.0,20.0,14.0,9.0,66,51,37,0.00,40.00,9,3,18,0.00
2013-3-30,40.0,30.0,23.0,22.0,16.1,-99.9,87,59,37,0.00,40.00,12,4,24,0.00
2013-3-31,41.0,29.5,20.0,22.0,12.8,5.0,96,52,32,0.00,40.00,10,4,17,0.00
2013-4-1,44.0,32.2,22.0,25.0,13.9,4.0,86,48,32,0.00,40.00,18,3,27,0.10
2013-4-2,28.0,22.8,20.0,22.0,19.9,18.0,97,88,70,0.00,40.00,12,6,18,4.10
2013-4-3,34.0,24.7,15.0,30.0,16.3,6.0,96,74,36,0.00,40.00,12,4,20,0.00
2013-4-4,42.0,31.0,21.0,16.0,11.2,7.0,63,44,29,0.00,40.00,8,3,17,0.00
2013-4-5,44.0,33.2,27.0,27.0,15.1,10.0,96,49,28,0.00,40.00,18,5,31,3.00
2013-4-6,41.0,29.1,21.0,27.0,16.3,4.0,96,65,23,0.00,40.00,11,5,24,0.10
2013-4-7,37.0,26.8,22.0,24.0,20.4,14.0,95,78,44,0.00,40.00,12,6,25,0.50
2013-4-8,40.0,30.0,23.0,27.0,16.0,9.0,96,59,30,0.00,40.00,34,11,45,0.10
2013-4-9,29.0,13.8,4.0,22.0,9.9,0.0,93,84,56,0.00,40.00,18,8,27,27.70
2013-4-10,19.0,10.6,2.0,15.0,7.4,-1.0,88,86,82,0.00,40.00,19,5,27,4.70
2013-4-11,28.0,17.9,7.0,27.0,15.4,4.0,94,89,83,0.00,40.00,19,6,27,0.70
2013-4-12,31.0,23.7,20.0,24.0,16.6,7.0,93,76,42,0.00,40.00,11,3,24,0.20
2013-4-13,37.0,28.5,19.0,24.0,9.9,7.0,87,46,29,0.00,40.00,26,7,47,1.10
2013-4-14,27.0,22.2,16.0,26.0,17.6,11.0,95,82,65,0.00,40.00,14,7,29,12.10
2013-4-15,36.0,28.7,18.0,29.0,21.7,15.0,93,75,56,0.00,40.00,32,11,42,1.80
2013-4-16,41.0,30.2,14.0,18.0,10.0,2.0,92,48,23,0.00,40.00,41,16,60,0.00
2013-4-17,31.0,20.0,6.0,21.0,10.6,3.0,92,70,30,0.00,40.00,40,13,57,5.70
2013-4-18,12.0,5.8,-1.0,10.0,2.6,-4.0,88,86,83,0.00,40.00,11,4,20,1.30
2013-4-19,28.0,14.3,1.0,11.0,5.4,-3.0,85,69,47,0.00,40.00,12,6,25,0.00
2013-4-20,34.0,22.7,17.0,26.0,17.9,9.0,95,82,57,0.00,40.00,12,4,19,0.90
2013-4-21,37.0,26.1,17.0,21.0,14.4,6.0,94,65,33,0.00,40.00,13,5,24,0.60
2013-4-22,40.0,28.1,16.0,29.0,18.8,10.0,96,72,32,0.00,40.00,12,5,25,4.40
2013-4-23,20.0,15.2,7.0,18.0,8.7,-6.0,92,76,43,0.00,40.00,15,6,26,3.00
2013-4-24,31.0,19.3,9.0,6.0,-1.0,-9.0,50,40,30,0.00,40.00,10,4,24,0.00
2013-4-25,43.0,30.7,19.0,16.0,7.2,-2.0,56,37,23,0.00,40.00,12,5,29,0.00
2013-4-26,43.0,31.9,23.0,21.0,11.1,4.0,79,44,22,0.00,40.00,13,4,21,0.00
2013-4-27,46.0,33.8,24.0,21.0,12.2,2.0,88,46,20,0.00,40.00,13,4,21,0.00
2013-4-28,49.0,38.1,25.0,16.0,11.1,6.0,44,33,25,0.00,40.00,11,4,20,0.00
2013-4-29,50.0,40.3,30.0,21.0,14.7,10.0,46,35,26,0.00,40.00,14,4,28,0.00
2013-4-30,50.0,42.3,33.0,20.0,14.2,10.0,37,31,26,0.00,40.00,25,6,35,0.00
2013-5-1,41.0,25.3,9.0,30.0,18.6,6.0,96,79,29,0.00,40.00,25,7,35,2.40
2013-5-2,31.0,16.3,2.0,17.0,5.4,-5.0,89,66,21,0.00,40.00,11,5,20,0.00
2013-5-3,43.0,29.9,16.0,9.0,2.1,-6.0,47,31,20,0.00,40.00,11,4,19,0.00
2013-5-4,40.0,28.6,19.0,26.0,14.8,9.0,95,58,33,0.00,40.00,14,6,22,3.30
2013-5-5,41.0,30.5,20.0,28.0,17.6,9.0,93,62,27,0.00,40.00,16,6,24,0.20
2013-5-6,39.0,31.1,26.0,31.0,26.2,21.0,96,82,61,0.00,40.00,14,5,19,7.00
2013-5-7,40.0,29.9,26.0,34.0,26.7,20.0,97,88,47,0.00,40.00,9,3,17,2.30
2013-5-8,35.0,27.4,24.0,27.0,24.3,20.0,96,88,55,0.00,40.00,23,5,31,6.90
2013-5-9,28.0,25.5,24.0,27.0,24.4,22.0,95,94,93,0.00,40.00,17,8,30,11.00
2013-5-10,38.0,29.7,20.0,29.0,19.8,-99.9,95,72,46,0.00,40.00,14,6,27,0.00
2013-5-11,47.0,34.6,25.0,26.0,18.2,-99.9,81,55,32,0.00,40.00,14,5,22,0.00
2013-5-12,50.0,39.8,29.0,28.0,20.7,15.0,91,48,26,0.00,40.00,12,6,21,0.00
2013-5-13,52.0,40.5,36.0,27.0,21.2,18.0,50,45,37,0.00,40.00,7,3,10,0.00
2013-6-12,69.0,56.0,44.0,25.0,19.6,14.0,29,24,19,0.00,40.00,23,6,34,0.00
2013-6-13,66.0,55.1,47.0,29.0,22.1,14.0,46,28,22,0.00,40.00,19,6,34,0.10
2013-6-14,63.0,53.7,46.0,33.0,25.9,11.0,51,35,21,0.00,40.00,19,7,25,0.00
2013-6-15,61.0,50.7,43.0,28.0,19.6,12.0,45,29,21,0.00,40.00,17,4,25,0.00
2013-6-16,59.0,47.1,38.0,34.0,29.4,25.0,83,50,35,0.00,40.00,21,5,27,0.00
2013-6-17,63.0,50.1,42.0,33.0,26.9,19.0,70,43,20,0.00,40.00,21,5,32,0.00
2013-6-18,59.0,48.6,36.0,37.0,27.9,17.0,94,49,19,0.00,40.00,22,8,29,0.00
2013-6-19,67.0,54.9,45.0,18.0,10.7,2.0,30,17,9,0.00,40.00,22,7,34,0.00
2013-7-12,60.0,52.5,49.0,46.0,41.9,39.0,83,67,49,0.00,40.00,6,3,14,0.00
2013-7-13,62.0,53.9,46.0,46.0,42.0,38.0,89,65,41,0.00,40.00,9,3,16,0.00
2013-7-14,63.0,51.5,45.0,46.0,42.4,38.0,96,73,43,0.00,40.00,14,6,20,0.40
2013-7-15,50.0,45.5,43.0,47.0,44.0,42.0,95,93,87,0.00,40.00,15,9,25,0.50
2013-7-16,57.0,47.4,38.0,42.0,37.1,31.0,94,71,38,0.00,40.00,12,6,23,0.00
2013-7-17,64.0,51.2,40.0,40.0,36.4,31.0,89,59,29,0.00,40.00,9,5,19,0.00
2013-7-18,67.0,51.4,44.0,43.0,39.0,34.0,91,66,30,0.00,40.00,11,6,23,0.00
2013-7-19,58.0,51.9,46.0,44.0,39.9,34.0,93,65,49,0.00,40.00,9,4,18,0.00
2013-7-20,59.0,51.3,46.0,39.0,36.8,33.0,73,57,44,0.00,40.00,6,3,9,0.00
2013-7-21,64.0,59.8,53.0,34.0,29.8,26.0,43,32,25,0.00,40.00,11,3,22,0.00
2013-7-22,67.0,57.7,49.0,37.0,31.0,28.0,45,36,27,0.00,40.00,7,4,13,0.00
2013-7-23,68.0,57.6,51.0,33.0,29.0,25.0,45,34,20,0.00,40.00,13,4,19,0.00
2013-7-24,60.0,52.7,47.0,43.0,37.3,33.0,85,57,39,0.00,40.00,13,3,20,0.00
2013-7-25,60.0,50.3,44.0,44.0,40.9,33.0,91,72,36,0.00,40.00,12,6,25,0.00
2013-7-26,60.0,50.8,43.0,43.0,39.1,35.0,94,65,41,0.00,40.00,11,4,20,0.00
2013-7-27,64.0,49.7,44.0,44.0,39.7,34.0,94,71,32,0.00,40.00,16,6,23,0.20
2013-8-6,57.0,46.3,42.0,42.0,38.9,34.0,94,76,47,0.00,40.00,9,4,15,0.20
2013-8-7,45.0,42.8,41.0,41.0,37.9,34.0,95,82,63,0.00,40.00,6,3,11,0.10
2013-8-8,55.0,44.1,40.0,40.0,34.4,27.0,95,71,34,0.00,40.00,16,6,25,0.00
2013-8-9,57.0,46.2,36.0,41.0,32.3,28.0,93,61,35,0.00,40.00,18,6,25,0.00
2013-8-10,62.0,46.8,41.0,37.0,31.4,20.0,84,59,21,0.00,40.00,9,5,17,0.00
2013-8-11,58.0,45.9,36.0,36.0,32.0,22.0,94,62,25,0.00,40.00,11,4,17,0.00
2013-8-12,57.0,48.6,42.0,39.0,33.6,26.0,81,58,30,0.00,40.00,11,4,16,0.00